createdAt,value
2022-08-07T00:00:02.923Z,11.2
2022-08-07T00:01:01.266Z,11.2
2022-08-07T00:02:35.772Z,11.3
2022-08-07T00:03:01.355Z,11.4
2022-08-07T00:04:01.367Z,11.3
2022-08-07T00:05:03.860Z,11.2
2022-08-07T00:06:01.445Z,11.2
2022-08-07T00:07:05.088Z,11.3
2022-08-07T00:08:02.089Z,11.3
2022-08-07T00:09:16.091Z,11.4
2022-08-07T00:10:19.566Z,11.3
2022-08-07T00:11:00.968Z,11.4
2022-08-07T00:12:01.508Z,11.3
2022-08-07T00:13:02.397Z,11.3
2022-08-07T00:14:01.648Z,11.3
2022-08-07T00:15:01.337Z,11.2
2022-08-07T00:16:00.942Z,11.1
2022-08-07T00:17:01.743Z,11.1
2022-08-07T00:18:01.150Z,11.1
2022-08-07T00:19:01.499Z,11.2
2022-08-07T00:20:03.142Z,11.1
2022-08-07T00:21:03.397Z,11.3
2022-08-07T00:22:01.760Z,11.2
2022-08-07T00:23:00.928Z,11.2
2022-08-07T00:24:01.510Z,11.2
2022-08-07T00:25:01.115Z,11.2
2022-08-07T00:26:07.032Z,11.3
2022-08-07T00:27:06.655Z,11.2
2022-08-07T00:28:01.393Z,11.3
2022-08-07T00:29:01.379Z,11.4
2022-08-07T00:30:01.408Z,11.3
2022-08-07T00:31:01.739Z,11.3
2022-08-07T00:32:01.286Z,11.3
2022-08-07T00:33:02.090Z,11.3
2022-08-07T00:34:01.798Z,11.2
2022-08-07T00:35:01.634Z,11.1
2022-08-07T00:36:01.596Z,11.2
2022-08-07T00:37:01.176Z,11.2
2022-08-07T00:38:01.762Z,10.9
2022-08-07T00:39:01.370Z,10.9
2022-08-07T00:40:00.979Z,10.9
2022-08-07T00:41:01.302Z,10.9
2022-08-07T00:42:01.556Z,10.9
2022-08-07T00:43:01.669Z,11
2022-08-07T00:44:02.901Z,11
2022-08-07T00:45:01.635Z,11
2022-08-07T00:46:01.840Z,11.1
2022-08-07T00:47:01.653Z,10.9
2022-08-07T00:48:08.570Z,10.9
2022-08-07T00:49:01.998Z,11
2022-08-07T00:50:17.272Z,11
2022-08-07T00:51:01.403Z,11.1
2022-08-07T00:52:00.981Z,11
2022-08-07T00:53:01.559Z,11
2022-08-07T00:54:01.140Z,10.9
2022-08-07T00:55:04.568Z,10.8
2022-08-07T00:56:03.481Z,10.8
2022-08-07T00:57:01.836Z,10.9
2022-08-07T00:58:01.303Z,10.8
2022-08-07T00:59:01.886Z,10.7
2022-08-07T01:00:01.469Z,10.8
2022-08-07T01:01:01.900Z,10.7
2022-08-07T01:02:01.568Z,10.6
2022-08-07T01:03:01.174Z,10.8
2022-08-07T01:04:01.758Z,10.8
2022-08-07T01:05:01.339Z,10.8
2022-08-07T01:06:00.927Z,10.8
2022-08-07T01:07:01.508Z,10.8
2022-08-07T01:08:01.788Z,10.7
2022-08-07T01:09:01.546Z,10.7
2022-08-07T01:10:05.403Z,10.7
2022-08-07T01:11:10.727Z,10.7
2022-08-07T01:12:05.160Z,10.8
2022-08-07T01:13:01.021Z,10.9
2022-08-07T01:14:01.312Z,10.8
2022-08-07T01:15:04.098Z,11
2022-08-07T01:16:05.792Z,10.9
2022-08-07T01:17:04.164Z,10.9
2022-08-07T01:18:01.540Z,10.9
2022-08-07T01:19:01.844Z,10.8
2022-08-07T01:20:01.384Z,10.9
2022-08-07T01:21:01.064Z,10.9
2022-08-07T01:22:01.200Z,10.8
2022-08-07T01:23:12.114Z,10.8
2022-08-07T01:24:01.222Z,10.8
2022-08-07T01:25:02.300Z,10.8
2022-08-07T01:26:01.003Z,10.8
2022-08-07T01:27:01.591Z,10.7
2022-08-07T01:28:01.174Z,10.6
2022-08-07T01:29:01.758Z,10.6
2022-08-07T01:30:01.363Z,10.7
2022-08-07T01:31:02.851Z,10.6
2022-08-07T01:32:01.525Z,10.6
2022-08-07T01:33:01.063Z,10.5
2022-08-07T01:34:01.883Z,10.6
2022-08-07T01:35:01.397Z,10.6
2022-08-07T01:36:06.138Z,10.7
2022-08-07T01:37:01.496Z,10.6
2022-08-07T01:38:01.093Z,10.6
2022-08-07T01:39:01.673Z,10.5
2022-08-07T01:40:01.205Z,10.5
2022-08-07T01:41:01.831Z,10.3
2022-08-07T01:42:07.941Z,10.4
2022-08-07T01:43:01.036Z,10.4
2022-08-07T01:44:01.784Z,10.4
2022-08-07T01:45:01.241Z,10.3
2022-08-07T01:46:01.819Z,10.5
2022-08-07T01:47:14.750Z,10.4
2022-08-07T01:48:17.058Z,10.3
2022-08-07T01:49:02.266Z,10.4
2022-08-07T01:50:01.298Z,10.5
2022-08-07T01:51:08.389Z,10.6
2022-08-07T01:52:04.388Z,10.6
2022-08-07T01:53:01.479Z,10.6
2022-08-07T01:54:09.726Z,10.5
2022-08-07T01:55:01.931Z,10.4
2022-08-07T01:56:01.621Z,10.4
2022-08-07T01:57:01.487Z,10.3
2022-08-07T01:58:06.233Z,10.3
2022-08-07T01:59:01.437Z,10.3
2022-08-07T02:00:01.022Z,10.3
2022-08-07T02:01:05.048Z,10.3
2022-08-07T02:02:02.897Z,10.3
2022-08-07T02:03:12.895Z,10.2
2022-08-07T02:04:01.354Z,10.2
2022-08-07T02:05:00.953Z,10.3
2022-08-07T02:06:01.495Z,10.3
2022-08-07T02:07:01.099Z,10.3
2022-08-07T02:08:01.666Z,10.4
2022-08-07T02:09:01.251Z,10.4
2022-08-07T02:10:01.806Z,10.5
2022-08-07T02:11:03.314Z,10.5
2022-08-07T02:12:03.209Z,10.4
2022-08-07T02:13:01.492Z,10.5
2022-08-07T02:14:02.597Z,10.5
2022-08-07T02:15:01.325Z,10.4
2022-08-07T02:16:01.864Z,10.3
2022-08-07T02:17:01.535Z,10.3
2022-08-07T02:18:01.730Z,10.2
2022-08-07T02:19:01.247Z,10.1
2022-08-07T02:20:03.828Z,10.1
2022-08-07T02:21:01.344Z,10.2
2022-08-07T02:22:02.821Z,10.2
2022-08-07T02:23:01.446Z,10
2022-08-07T02:24:01.670Z,10.1
2022-08-07T02:25:01.895Z,10.1
2022-08-07T02:26:11.054Z,10.2
2022-08-07T02:27:01.321Z,10.1
2022-08-07T02:28:01.030Z,10.1
2022-08-07T02:29:00.952Z,9.8
2022-08-07T02:30:03.694Z,9.9
2022-08-07T02:31:01.775Z,9.9
2022-08-07T02:32:01.644Z,9.9
2022-08-07T02:33:04.049Z,9.9
2022-08-07T02:34:03.370Z,10.1
2022-08-07T02:35:01.359Z,10.1
2022-08-07T02:36:27.552Z,10.3
2022-08-07T02:37:01.483Z,10.3
2022-08-07T02:38:01.048Z,10.2
2022-08-07T02:39:01.831Z,10.2
2022-08-07T02:40:01.887Z,10.3
2022-08-07T02:41:03.673Z,10.3
2022-08-07T02:42:01.378Z,10.1
2022-08-07T02:43:01.197Z,10
2022-08-07T02:44:01.828Z,10
2022-08-07T02:45:07.339Z,10.1
2022-08-07T02:46:02.258Z,10
2022-08-07T02:47:01.216Z,9.9
2022-08-07T02:48:01.974Z,9.9
2022-08-07T02:49:03.163Z,9.9
2022-08-07T02:50:01.896Z,9.9
2022-08-07T02:51:01.795Z,9.9
2022-08-07T02:52:01.286Z,10
2022-08-07T02:53:03.596Z,10
2022-08-07T02:54:01.410Z,10
2022-08-07T02:55:00.992Z,9.9
2022-08-07T02:56:02.749Z,9.8
2022-08-07T02:57:01.075Z,9.9
2022-08-07T02:58:01.678Z,9.8
2022-08-07T02:59:01.278Z,9.7
2022-08-07T03:00:04.831Z,9.8
2022-08-07T03:01:01.452Z,9.8
2022-08-07T03:02:02.316Z,9.9
2022-08-07T03:03:05.812Z,9.8
2022-08-07T03:04:03.172Z,9.8
2022-08-07T03:05:05.235Z,10
2022-08-07T03:06:01.456Z,10
2022-08-07T03:07:03.337Z,10.2
2022-08-07T03:08:05.540Z,10.2
2022-08-07T03:09:01.140Z,10.3
2022-08-07T03:10:01.719Z,10.3
2022-08-07T03:11:01.485Z,10.2
2022-08-07T03:12:02.680Z,10.2
2022-08-07T03:13:01.521Z,10.3
2022-08-07T03:14:01.425Z,10.3
2022-08-07T03:15:02.311Z,10.3
2022-08-07T03:16:00.968Z,10.4
2022-08-07T03:17:01.018Z,10.5
2022-08-07T03:18:01.575Z,10.3
2022-08-07T03:19:01.177Z,10.3
2022-08-07T03:20:01.738Z,10.3
2022-08-07T03:21:01.321Z,10.4
2022-08-07T03:22:01.905Z,10.5
2022-08-07T03:23:01.492Z,10.6
2022-08-07T03:24:17.565Z,10.6
2022-08-07T03:25:01.640Z,10.6
2022-08-07T03:26:01.222Z,10.6
2022-08-07T03:27:01.796Z,10.6
2022-08-07T03:28:09.870Z,10.5
2022-08-07T03:29:01.114Z,10.4
2022-08-07T03:30:03.630Z,10.4
2022-08-07T03:31:01.372Z,10.2
2022-08-07T03:32:01.603Z,10.2
2022-08-07T03:33:01.100Z,10.2
2022-08-07T03:34:01.723Z,10.2
2022-08-07T03:35:18.242Z,10.2
2022-08-07T03:36:01.850Z,10.1
2022-08-07T03:37:01.038Z,10.2
2022-08-07T03:38:01.578Z,10.1
2022-08-07T03:39:05.337Z,10.1
2022-08-07T03:40:13.110Z,10.2
2022-08-07T03:41:01.264Z,10.1
2022-08-07T03:42:01.509Z,10.1
2022-08-07T03:43:01.156Z,10.1
2022-08-07T03:44:01.473Z,10
2022-08-07T03:45:01.358Z,10
2022-08-07T03:46:01.063Z,10
2022-08-07T03:47:11.722Z,9.9
2022-08-07T03:48:01.011Z,9.8
2022-08-07T03:49:02.267Z,9.7
2022-08-07T03:50:01.835Z,9.8
2022-08-07T03:51:01.421Z,9.6
2022-08-07T03:52:01.509Z,9.6
2022-08-07T03:53:01.098Z,9.7
2022-08-07T03:54:32.847Z,9.7
2022-08-07T03:55:07.233Z,9.8
2022-08-07T03:56:04.225Z,9.8
2022-08-07T03:57:03.839Z,9.9
2022-08-07T03:58:32.828Z,9.9
2022-08-07T03:59:06.914Z,10
2022-08-07T04:00:02.838Z,10.1
2022-08-07T04:01:01.371Z,10
2022-08-07T04:02:01.569Z,10
2022-08-07T04:03:04.219Z,10
2022-08-07T04:04:04.824Z,10
2022-08-07T04:05:01.257Z,10.2
2022-08-07T04:06:01.861Z,10.2
2022-08-07T04:07:01.644Z,10.2
2022-08-07T04:08:01.183Z,10.3
2022-08-07T04:09:01.655Z,10.5
2022-08-07T04:10:02.076Z,10.4
2022-08-07T04:12:15.782Z,10.4
2022-08-07T04:12:20.969Z,10.5
2022-08-07T04:13:01.564Z,10.5
2022-08-07T04:14:09.687Z,10.5
2022-08-07T04:15:01.737Z,10.4
2022-08-07T04:16:01.275Z,10.5
2022-08-07T04:17:03.090Z,10.5
2022-08-07T04:18:31.751Z,10.6
2022-08-07T04:19:03.990Z,10.5
2022-08-07T04:20:01.895Z,10.5
2022-08-07T04:21:00.990Z,10.4
2022-08-07T04:22:06.170Z,10.4
2022-08-07T04:23:02.038Z,10.3
2022-08-07T04:24:02.093Z,10.3
2022-08-07T04:25:02.008Z,10.2
2022-08-07T04:26:01.779Z,10.2
2022-08-07T04:27:01.308Z,10.2
2022-08-07T04:28:01.957Z,10.2
2022-08-07T04:29:01.541Z,10.3
2022-08-07T04:30:04.656Z,10.2
2022-08-07T04:31:01.293Z,10.1
2022-08-07T04:32:03.525Z,10.1
2022-08-07T04:33:01.392Z,10.2
2022-08-07T04:34:01.933Z,10.3
2022-08-07T04:35:01.143Z,10.3
2022-08-07T04:36:01.684Z,10.3
2022-08-07T04:37:01.247Z,10.3
2022-08-07T04:38:03.619Z,10.3
2022-08-07T04:39:01.453Z,10.4
2022-08-07T04:40:01.177Z,10.4
2022-08-07T04:41:01.634Z,10.3
2022-08-07T04:42:01.662Z,10.3
2022-08-07T04:43:03.417Z,10.3
2022-08-07T04:44:10.731Z,10.4
2022-08-07T04:45:02.765Z,10.4
2022-08-07T04:46:02.143Z,10.5
2022-08-07T04:47:05.166Z,10.6
2022-08-07T04:48:04.189Z,10.8
2022-08-07T04:49:01.721Z,10.8
2022-08-07T04:50:03.793Z,10.9
2022-08-07T04:51:01.726Z,11
2022-08-07T04:52:01.043Z,11.1
2022-08-07T04:53:03.076Z,11.2
2022-08-07T04:54:05.987Z,11.3
2022-08-07T04:55:01.323Z,11.3
2022-08-07T04:58:07.234Z,11.4
2022-08-07T04:58:08.236Z,11.3
2022-08-07T04:58:08.742Z,11.4
2022-08-07T04:59:16.849Z,11.3
2022-08-07T05:00:09.070Z,11.5
2022-08-07T05:01:01.638Z,11.5
2022-08-07T05:02:01.219Z,11.6
2022-08-07T05:03:01.733Z,11.7
2022-08-07T05:04:08.104Z,11.8
2022-08-07T05:05:01.897Z,11.7
2022-08-07T05:06:01.436Z,11.8
2022-08-07T05:07:00.973Z,11.9
2022-08-07T05:08:01.516Z,11.9
2022-08-07T05:09:02.265Z,11.9
2022-08-07T05:10:01.066Z,12.1
2022-08-07T05:11:02.496Z,12.1
2022-08-07T05:12:02.449Z,12.1
2022-08-07T05:13:01.894Z,12.1
2022-08-07T05:14:45.534Z,12.2
2022-08-07T05:15:03.363Z,12.3
2022-08-07T05:16:04.670Z,12.3
2022-08-07T05:17:01.095Z,12.3
2022-08-07T05:18:01.737Z,12.3
2022-08-07T05:19:01.176Z,12.5
2022-08-07T05:20:01.324Z,12.5
2022-08-07T05:21:01.904Z,12.6
2022-08-07T05:22:01.921Z,12.6
2022-08-07T05:23:00.986Z,12.7
2022-08-07T05:24:01.277Z,12.6
2022-08-07T05:25:01.855Z,12.7
2022-08-07T05:26:13.961Z,12.7
2022-08-07T05:27:01.936Z,12.7
2022-08-07T05:28:03.611Z,12.8
2022-08-07T05:29:04.161Z,12.9
2022-08-07T05:30:01.851Z,13
2022-08-07T05:31:01.571Z,13
2022-08-07T05:32:01.111Z,13.1
2022-08-07T05:33:02.336Z,13.2
2022-08-07T05:34:05.013Z,13.3
2022-08-07T05:35:02.073Z,13.3
2022-08-07T05:36:01.845Z,13.4
2022-08-07T05:37:01.384Z,13.4
2022-08-07T05:38:08.488Z,13.4
2022-08-07T05:40:03.776Z,13.4
2022-08-07T05:40:07.338Z,13.6
2022-08-07T05:41:01.693Z,13.6
2022-08-07T05:42:04.499Z,13.7
2022-08-07T05:43:01.669Z,13.8
2022-08-07T05:44:08.822Z,13.8
2022-08-07T05:45:04.663Z,13.8
2022-08-07T05:46:01.409Z,13.8
2022-08-07T05:47:01.245Z,13.8
2022-08-07T05:48:03.143Z,13.9
2022-08-07T05:49:08.879Z,13.9
2022-08-07T05:50:01.575Z,13.9
2022-08-07T05:51:01.160Z,14
2022-08-07T05:52:01.764Z,14.1
2022-08-07T05:53:01.661Z,14.2
2022-08-07T05:54:08.955Z,14.2
2022-08-07T05:55:06.904Z,14.2
2022-08-07T05:56:02.491Z,14.3
2022-08-07T05:57:01.630Z,14.3
2022-08-07T05:58:01.059Z,14.3
2022-08-07T05:59:01.221Z,14.4
2022-08-07T06:00:01.633Z,14.6
2022-08-07T06:01:01.219Z,14.6
2022-08-07T06:02:01.879Z,14.7
2022-08-07T06:03:01.777Z,14.8
2022-08-07T06:04:01.576Z,14.8
2022-08-07T06:05:01.816Z,14.9
2022-08-07T06:06:01.117Z,14.9
2022-08-07T06:07:03.382Z,14.8
2022-08-07T06:08:09.369Z,14.9
2022-08-07T06:09:04.514Z,14.9
2022-08-07T06:10:03.912Z,14.9
2022-08-07T06:11:03.862Z,15
2022-08-07T06:12:01.381Z,15.2
2022-08-07T06:13:02.180Z,15.1
2022-08-07T06:14:11.396Z,15.1
2022-08-07T06:15:05.466Z,15.1
2022-08-07T06:16:01.010Z,15.1
2022-08-07T06:17:01.731Z,15.2
2022-08-07T06:18:01.270Z,15.3
2022-08-07T06:19:01.869Z,15.3
2022-08-07T06:20:03.844Z,15.3
2022-08-07T06:22:11.519Z,15.4
2022-08-07T06:22:12.386Z,15.3
2022-08-07T06:23:01.961Z,15.6
2022-08-07T06:24:38.856Z,15.6
2022-08-07T06:25:01.741Z,15.8
2022-08-07T06:26:01.583Z,15.8
2022-08-07T06:27:03.481Z,15.8
2022-08-07T06:28:02.686Z,15.8
2022-08-07T06:29:01.747Z,15.7
2022-08-07T06:30:01.291Z,15.9
2022-08-07T06:31:01.882Z,16
2022-08-07T06:32:01.568Z,16.1
2022-08-07T06:33:01.167Z,16.2
2022-08-07T06:34:01.702Z,16.2
2022-08-07T06:35:01.283Z,16.3
2022-08-07T06:36:07.086Z,16.4
2022-08-07T06:37:02.518Z,16.4
2022-08-07T06:38:01.352Z,16.4
2022-08-07T06:40:12.822Z,16.6
2022-08-07T06:40:14.068Z,16.5
2022-08-07T06:41:01.415Z,16.7
2022-08-07T06:42:03.385Z,16.7
2022-08-07T06:43:01.959Z,16.7
2022-08-07T06:44:06.597Z,16.8
2022-08-07T06:45:01.473Z,17
2022-08-07T06:46:01.984Z,17
2022-08-07T06:47:09.994Z,16.9
2022-08-07T06:48:01.127Z,17
2022-08-07T06:49:04.014Z,17.1
2022-08-07T06:50:01.369Z,17
2022-08-07T06:51:07.895Z,17.2
2022-08-07T06:52:03.000Z,17.2
2022-08-07T06:53:01.089Z,17.2
2022-08-07T06:54:12.326Z,17.2
2022-08-07T06:55:30.953Z,17.3
2022-08-07T06:56:01.892Z,17.3
2022-08-07T06:57:01.867Z,17.2
2022-08-07T06:58:01.323Z,17.3
2022-08-07T07:00:10.714Z,17.3
2022-08-07T07:00:11.304Z,17.4
2022-08-07T07:01:01.001Z,17.5
2022-08-07T07:02:01.566Z,17.3
2022-08-07T07:03:08.979Z,17.4
2022-08-07T07:04:05.636Z,17.4
2022-08-07T07:05:01.657Z,17.6
2022-08-07T07:06:02.080Z,17.5
2022-08-07T07:07:02.073Z,17.6
2022-08-07T07:08:03.747Z,17.7
2022-08-07T07:09:01.494Z,17.7
2022-08-07T07:10:01.055Z,17.7
2022-08-07T07:11:01.640Z,17.8
2022-08-07T07:12:07.331Z,17.8
2022-08-07T07:13:02.338Z,17.8
2022-08-07T07:14:02.411Z,17.8
2022-08-07T07:15:01.157Z,17.8
2022-08-07T07:16:01.815Z,17.8
2022-08-07T07:17:01.432Z,17.8
2022-08-07T07:18:01.045Z,17.8
2022-08-07T07:19:04.257Z,17.8
2022-08-07T07:20:01.184Z,17.8
2022-08-07T07:21:01.474Z,17.9
2022-08-07T07:22:04.492Z,17.9
2022-08-07T07:24:06.886Z,18.1
2022-08-07T07:24:07.031Z,18.1
2022-08-07T07:25:02.679Z,18.1
2022-08-07T07:26:31.872Z,18.3
2022-08-07T07:27:01.778Z,18.3
2022-08-07T07:28:02.245Z,18.3
2022-08-07T07:29:28.662Z,18.4
2022-08-07T07:30:08.650Z,18.3
2022-08-07T07:31:01.808Z,18.2
2022-08-07T07:32:01.538Z,18.2
2022-08-07T07:33:01.120Z,18.2
2022-08-07T07:34:01.700Z,18.3
2022-08-07T07:35:01.915Z,18.4
2022-08-07T07:36:04.200Z,18.4
2022-08-07T07:37:05.343Z,18.5
2022-08-07T07:38:02.294Z,18.6
2022-08-07T07:39:01.487Z,18.6
2022-08-07T07:40:01.080Z,18.6
2022-08-07T07:41:02.529Z,18.6
2022-08-07T07:42:08.983Z,18.8
2022-08-07T07:43:02.385Z,18.9
2022-08-07T07:44:15.024Z,18.8
2022-08-07T07:45:01.918Z,18.8
2022-08-07T07:46:36.446Z,18.9
2022-08-07T07:47:12.010Z,18.9
2022-08-07T07:48:01.968Z,18.8
2022-08-07T07:49:09.086Z,18.8
2022-08-07T07:50:31.939Z,18.8
2022-08-07T07:51:02.087Z,18.8
2022-08-07T07:52:01.432Z,18.9
2022-08-07T07:53:05.022Z,19
2022-08-07T07:54:01.585Z,19
2022-08-07T07:55:01.250Z,19.1
2022-08-07T07:56:01.811Z,19
2022-08-07T07:57:01.429Z,19
2022-08-07T07:58:01.488Z,19.2
2022-08-07T07:59:01.933Z,19.3
2022-08-07T08:00:02.101Z,19.3
2022-08-07T08:01:01.836Z,19.2
2022-08-07T08:02:05.391Z,19.1
2022-08-07T08:03:05.140Z,19.2
2022-08-07T08:04:05.852Z,19.4
2022-08-07T08:05:02.009Z,19.5
2022-08-07T08:06:01.881Z,19.6
2022-08-07T08:07:02.766Z,19.7
2022-08-07T08:08:02.083Z,19.6
2022-08-07T08:09:01.786Z,19.4
2022-08-07T08:10:05.201Z,19.3
2022-08-07T08:11:01.926Z,19.4
2022-08-07T08:12:03.159Z,19.5
2022-08-07T08:13:02.977Z,19.6
2022-08-07T08:14:01.716Z,19.7
2022-08-07T08:15:01.993Z,19.8
2022-08-07T08:16:01.539Z,19.7
2022-08-07T08:17:32.312Z,19.6
2022-08-07T08:18:17.245Z,19.7
2022-08-07T08:19:10.037Z,19.8
2022-08-07T08:20:16.723Z,20
2022-08-07T08:21:01.364Z,19.9
2022-08-07T08:22:03.495Z,19.9
2022-08-07T08:23:01.208Z,20
2022-08-07T08:24:01.796Z,19.9
2022-08-07T08:25:04.588Z,20
2022-08-07T08:26:06.607Z,20.1
2022-08-07T08:27:01.489Z,20.3
2022-08-07T08:28:03.801Z,20.2
2022-08-07T08:29:01.575Z,20.2
2022-08-07T08:30:02.851Z,20.3
2022-08-07T08:31:01.306Z,20.4
2022-08-07T08:32:10.277Z,20.5
2022-08-07T08:33:01.534Z,20.6
2022-08-07T08:34:01.856Z,20.6
2022-08-07T08:35:01.710Z,20.6
2022-08-07T08:36:01.565Z,20.6
2022-08-07T08:37:01.558Z,20.4
2022-08-07T08:38:03.283Z,20.5
2022-08-07T08:39:02.597Z,20.5
2022-08-07T08:40:01.422Z,20.4
2022-08-07T08:41:02.715Z,20.5
2022-08-07T08:42:01.468Z,20.7
2022-08-07T08:43:01.053Z,20.9
2022-08-07T08:44:01.774Z,20.8
2022-08-07T08:45:01.292Z,20.8
2022-08-07T08:46:01.829Z,20.8
2022-08-07T08:47:01.411Z,20.8
2022-08-07T08:48:01.993Z,20.8
2022-08-07T08:49:01.556Z,20.7
2022-08-07T08:50:02.805Z,20.7
2022-08-07T08:51:03.336Z,20.8
2022-08-07T08:52:13.616Z,20.8
2022-08-07T08:53:01.634Z,20.9
2022-08-07T08:54:01.239Z,21.1
2022-08-07T08:55:04.701Z,21.1
2022-08-07T08:56:01.896Z,21.3
2022-08-07T08:57:02.196Z,21.3
2022-08-07T08:58:01.883Z,21.1
2022-08-07T08:59:02.427Z,21.1
2022-08-07T09:00:01.983Z,21.1
2022-08-07T09:01:01.594Z,21.2
2022-08-07T09:02:01.188Z,21.3
2022-08-07T09:03:01.084Z,21.3
2022-08-07T09:04:01.625Z,21.2
2022-08-07T09:05:01.395Z,21.2
2022-08-07T09:06:01.937Z,21.2
2022-08-07T09:07:01.540Z,21
2022-08-07T09:08:01.845Z,20.9
2022-08-07T09:09:01.771Z,20.9
2022-08-07T09:10:02.616Z,21
2022-08-07T09:11:01.819Z,21.1
2022-08-07T09:12:09.053Z,21.1
2022-08-07T09:13:01.951Z,21.4
2022-08-07T09:14:01.751Z,21.5
2022-08-07T09:15:01.221Z,21.7
2022-08-07T09:16:19.987Z,22
2022-08-07T09:17:01.338Z,21.8
2022-08-07T09:18:06.025Z,21.4
2022-08-07T09:19:03.321Z,21.4
2022-08-07T09:20:01.815Z,21.4
2022-08-07T09:21:01.366Z,21.3
2022-08-07T09:22:22.835Z,21.4
2022-08-07T09:24:29.885Z,21.4
2022-08-07T09:24:34.438Z,21.4
2022-08-07T09:25:06.121Z,21.6
2022-08-07T09:26:01.200Z,21.8
2022-08-07T09:27:02.106Z,21.7
2022-08-07T09:28:02.083Z,21.5
2022-08-07T09:30:02.432Z,21.6
2022-08-07T09:30:07.884Z,21.9
2022-08-07T09:31:01.631Z,22.1
2022-08-07T09:32:01.634Z,22.1
2022-08-07T09:33:05.180Z,22.1
2022-08-07T09:34:01.759Z,22
2022-08-07T09:35:04.360Z,22.1
2022-08-07T09:36:05.553Z,22.3
2022-08-07T09:37:01.438Z,22.3
2022-08-07T09:38:01.707Z,22.3
2022-08-07T09:39:06.196Z,22.3
2022-08-07T09:40:01.870Z,22.3
2022-08-07T09:41:01.503Z,22.2
2022-08-07T09:42:03.242Z,22.2
2022-08-07T09:43:01.601Z,22.3
2022-08-07T09:44:05.380Z,22.4
2022-08-07T09:46:11.259Z,22.5
2022-08-07T09:46:28.782Z,22.7
2022-08-07T09:47:26.978Z,22.7
2022-08-07T09:48:05.105Z,22.5
2022-08-07T09:50:00.216Z,22.2
2022-08-07T09:50:18.746Z,22.1
2022-08-07T09:51:01.337Z,22
2022-08-07T09:52:09.552Z,21.7
2022-08-07T09:53:01.271Z,21.5
2022-08-07T09:54:02.762Z,21.5
2022-08-07T09:55:01.912Z,21.7
2022-08-07T09:56:04.075Z,22.1
2022-08-07T09:57:01.698Z,22.1
2022-08-07T09:58:01.248Z,22
2022-08-07T09:59:01.829Z,21.8
2022-08-07T10:00:01.872Z,21.8
2022-08-07T10:01:01.076Z,22.1
2022-08-07T10:02:01.658Z,22.1
2022-08-07T10:03:08.016Z,22.2
2022-08-07T10:04:02.963Z,22
2022-08-07T10:05:01.452Z,22
2022-08-07T10:06:03.633Z,21.9
2022-08-07T10:07:01.542Z,22
2022-08-07T10:08:01.864Z,22.1
2022-08-07T10:09:02.067Z,22
2022-08-07T10:10:02.516Z,21.9
2022-08-07T10:11:16.591Z,22
2022-08-07T10:12:04.648Z,22.2
2022-08-07T10:13:01.769Z,22.2
2022-08-07T10:14:02.406Z,22.1
2022-08-07T10:15:01.517Z,22
2022-08-07T10:16:01.613Z,21.8
2022-08-07T10:17:01.193Z,22
2022-08-07T10:18:03.187Z,22.1
2022-08-07T10:19:01.933Z,22.3
2022-08-07T10:20:01.515Z,22.3
2022-08-07T10:21:01.320Z,22.3
2022-08-07T10:22:14.025Z,22.2
2022-08-07T10:23:01.442Z,21.9
2022-08-07T10:24:04.526Z,21.9
2022-08-07T10:25:01.615Z,22
2022-08-07T10:26:01.272Z,22.2
2022-08-07T10:27:01.852Z,22.3
2022-08-07T10:28:02.448Z,22.5
2022-08-07T10:29:01.154Z,22.5
2022-08-07T10:30:01.827Z,22.7
2022-08-07T10:31:01.342Z,22.6
2022-08-07T10:32:01.880Z,22.8
2022-08-07T10:33:01.422Z,22.6
2022-08-07T10:34:05.353Z,22.5
2022-08-07T10:35:01.573Z,22.5
2022-08-07T10:36:05.390Z,22.4
2022-08-07T10:37:03.883Z,22.3
2022-08-07T10:38:10.034Z,22.3
2022-08-07T10:39:01.805Z,22.4
2022-08-07T10:40:03.611Z,22.6
2022-08-07T10:41:01.850Z,22.8
2022-08-07T10:42:09.621Z,22.6
2022-08-07T10:43:01.971Z,22.7
2022-08-07T10:44:02.499Z,22.7
2022-08-07T10:45:01.696Z,22.6
2022-08-07T10:46:01.296Z,22.5
2022-08-07T10:47:01.862Z,22.5
2022-08-07T10:48:03.685Z,22.4
2022-08-07T10:49:01.942Z,22.4
2022-08-07T10:50:01.541Z,22.4
2022-08-07T10:51:01.161Z,22.6
2022-08-07T10:52:13.551Z,22.6
2022-08-07T10:53:04.139Z,22.4
2022-08-07T10:54:01.772Z,22.4
2022-08-07T10:55:01.441Z,22.4
2022-08-07T10:56:02.315Z,22.3
2022-08-07T10:57:01.615Z,22.3
2022-08-07T10:58:01.185Z,22.6
2022-08-07T10:59:01.819Z,22.8
2022-08-07T11:00:01.425Z,22.7
2022-08-07T11:01:02.045Z,22.8
2022-08-07T11:02:02.716Z,22.6
2022-08-07T11:03:02.123Z,22.6
2022-08-07T11:04:16.917Z,22.5
2022-08-07T11:05:04.242Z,22.3
2022-08-07T11:06:01.904Z,22.2
2022-08-07T11:07:01.444Z,22.6
2022-08-07T11:08:02.946Z,22.5
2022-08-07T11:09:01.162Z,22.6
2022-08-07T11:10:06.898Z,22.7
2022-08-07T11:11:01.342Z,22.8
2022-08-07T11:12:01.713Z,22.9
2022-08-07T11:13:01.887Z,22.9
2022-08-07T11:14:43.183Z,23
2022-08-07T11:15:01.566Z,22.9
2022-08-07T11:16:01.116Z,22.7
2022-08-07T11:17:02.062Z,22.8
2022-08-07T11:18:03.496Z,22.7
2022-08-07T11:19:01.768Z,22.8
2022-08-07T11:20:03.318Z,22.9
2022-08-07T11:21:01.908Z,23.3
2022-08-07T11:22:01.513Z,23.3
2022-08-07T11:23:01.920Z,23.2
2022-08-07T11:24:01.499Z,22.9
2022-08-07T11:25:02.681Z,23.1
2022-08-07T11:26:05.959Z,23
2022-08-07T11:27:02.036Z,22.9
2022-08-07T11:28:04.253Z,22.8
2022-08-07T11:29:01.700Z,22.9
2022-08-07T11:30:10.287Z,23
2022-08-07T11:31:01.786Z,23.3
2022-08-07T11:32:01.390Z,23.2
2022-08-07T11:33:01.913Z,23.1
2022-08-07T11:34:01.454Z,23.3
2022-08-07T11:35:01.992Z,23.3
2022-08-07T11:36:03.828Z,23.4
2022-08-07T11:37:01.487Z,23.2
2022-08-07T11:38:09.891Z,23.2
2022-08-07T11:39:01.504Z,23.3
2022-08-07T11:40:03.642Z,23.5
2022-08-07T11:41:02.100Z,23.4
2022-08-07T11:42:03.289Z,23.3
2022-08-07T11:43:02.027Z,23
2022-08-07T11:44:11.540Z,23.3
2022-08-07T11:45:01.163Z,23.5
2022-08-07T11:46:01.702Z,23.5
2022-08-07T11:47:01.282Z,23.4
2022-08-07T11:48:05.040Z,23.4
2022-08-07T11:49:29.033Z,23.3
2022-08-07T11:50:25.683Z,23.5
2022-08-07T11:51:01.526Z,23.7
2022-08-07T11:52:01.118Z,23.8
2022-08-07T11:53:01.115Z,23.9
2022-08-07T11:54:02.709Z,24.1
2022-08-07T11:55:01.364Z,23.9
2022-08-07T11:56:09.885Z,23.7
2022-08-07T11:57:01.515Z,23.6
2022-08-07T11:58:01.864Z,23.6
2022-08-07T11:59:01.460Z,23.4
2022-08-07T12:00:09.069Z,23.2
2022-08-07T12:01:04.286Z,23.4
2022-08-07T12:02:02.113Z,23.4
2022-08-07T12:03:01.785Z,23.3
2022-08-07T12:04:01.594Z,23.2
2022-08-07T12:05:01.963Z,23.2
2022-08-07T12:06:02.038Z,23.2
2022-08-07T12:07:03.979Z,23.5
2022-08-07T12:08:03.923Z,24
2022-08-07T12:09:01.681Z,24.3
2022-08-07T12:10:02.064Z,24.5
2022-08-07T12:11:08.509Z,24.3
2022-08-07T12:12:09.876Z,24.3
2022-08-07T12:13:02.073Z,24.2
2022-08-07T12:14:01.612Z,24.2
2022-08-07T12:15:01.867Z,24.3
2022-08-07T12:16:05.531Z,24.4
2022-08-07T12:17:02.072Z,24.4
2022-08-07T12:18:03.217Z,24.5
2022-08-07T12:19:01.151Z,24.6
2022-08-07T12:20:03.382Z,24.9
2022-08-07T12:21:01.271Z,24.7
2022-08-07T12:22:38.228Z,24.2
2022-08-07T12:23:02.106Z,23.8
2022-08-07T12:24:06.457Z,23.8
2022-08-07T12:25:02.168Z,23.7
2022-08-07T12:26:22.610Z,23.6
2022-08-07T12:27:01.827Z,23.7
2022-08-07T12:28:04.211Z,24
2022-08-07T12:29:01.393Z,24.3
2022-08-07T12:30:01.950Z,24.1
2022-08-07T12:31:01.824Z,24.2
2022-08-07T12:32:04.262Z,24.5
2022-08-07T12:33:01.420Z,24.8
2022-08-07T12:34:04.153Z,24.7
2022-08-07T12:35:01.529Z,24.5
2022-08-07T12:36:02.503Z,24.3
2022-08-07T12:37:01.155Z,24.2
2022-08-07T12:38:08.930Z,24.4
2022-08-07T12:39:01.475Z,24.7
2022-08-07T12:40:01.601Z,24.7
2022-08-07T12:41:01.206Z,24.7
2022-08-07T12:42:02.370Z,24.7
2022-08-07T12:43:02.098Z,24.6
2022-08-07T12:44:05.181Z,24.3
2022-08-07T12:45:04.403Z,24.2
2022-08-07T12:46:01.550Z,24.6
2022-08-07T12:47:01.809Z,25
2022-08-07T12:48:01.351Z,25.1
2022-08-07T12:49:09.707Z,25
2022-08-07T12:50:04.430Z,25.1
2022-08-07T12:51:12.815Z,25.2
2022-08-07T12:52:11.918Z,24.7
2022-08-07T12:53:01.122Z,24.6
2022-08-07T12:54:03.522Z,24.4
2022-08-07T12:55:03.880Z,24.4
2022-08-07T12:56:02.270Z,24.4
2022-08-07T12:57:04.620Z,24.3
2022-08-07T12:58:02.607Z,24.5
2022-08-07T12:59:01.338Z,24.6
2022-08-07T13:00:01.977Z,24.6
2022-08-07T13:01:01.289Z,24.5
2022-08-07T13:02:02.002Z,24.6
2022-08-07T13:03:06.853Z,24.5
2022-08-07T13:04:04.983Z,24.3
2022-08-07T13:05:02.550Z,24.3
2022-08-07T13:06:02.171Z,24.2
2022-08-07T13:07:02.327Z,24.1
2022-08-07T13:08:13.176Z,24
2022-08-07T13:09:02.103Z,24.2
2022-08-07T13:10:22.242Z,24.2
2022-08-07T13:11:01.203Z,24.2
2022-08-07T13:12:08.755Z,24.4
2022-08-07T13:13:01.348Z,24.6
2022-08-07T13:14:01.934Z,24.4
2022-08-07T13:15:01.595Z,24.3
2022-08-07T13:16:01.177Z,24.5
2022-08-07T13:17:01.778Z,24.4
2022-08-07T13:18:01.364Z,24.3
2022-08-07T13:19:01.938Z,24.2
2022-08-07T13:20:01.136Z,24.3
2022-08-07T13:21:02.706Z,24.3
2022-08-07T13:22:09.808Z,24.4
2022-08-07T13:23:03.894Z,24.4